Echo Bay, Nevada
Current Conditions -  °F | °C
As of 6:58 AM on Saturday 20 Dec 2014 (Local Time) from KLSV Reporting Station
Clear Clear  
Wind Chill:   Ceiling: Unl
Heat Index:   Visibility: 10mi
Dew Point:   Wind: 0mph
Humidity: 89%   Direction: NA
Pressure: 30.16"   Gusts: NA
Location:  36.5809°N, 114.605°W
Report Text: KLSV 201458Z AUTO 00000KT 10SM CLR 03/01 A3016 RMK AO2 SLP216 T00300013 50002 $
Loading
Personal Weather Stations






























Interactive Weather Map New forecast layout! Learn more

10-Day Weather Forecast

Advertisements
Track Severe Weather on mobile